Terminal Aerodrome Forecast
Issued by NWS

Home | Current Version | Previous Version | Graphics & Text | Print | Product List | Glossary On
Versions: 1 2 3 4 5 6 7 8 9 10 11 12 13 14 15 16 17 18 19 20
078
FTUS43 KLSX 271144
TAFSUS
TAF
KSUS 271144Z 2712/2812 VRB05KT 6SM -SHRA SCT015 BKN050 OVC100
      TEMPO 2712/2715 4SM SHRA BKN015
     FM271500 16008KT P6SM SCT040 BKN100
     FM272100 17010KT 6SM -SHRA VCTS SCT050CB BKN100
     FM280300 17008KT P6SM SCT050 BKN100=

USA.gov is the U.S. government's official web portal to all federal, state and local government web resources and services.